Time;durP1;ratioP1;P1;durP2;ratioP2;P2;SDS_P1;SDS_P2;PMS_P1;PMS_P2;Temp;Humidity;BMP_temperature;BMP_pressure;BME280_temperature;BME280_humidity;BME280_pressure;Samples;Min_cycle;Max_cycle;Signal;HPM_P1;HPM_P2
2022/07/29 00:00:47;;;;;;;;;;;20.80;99.90;;;19.93;77.80;95563.28;10420165;28;1823;-72
2022/07/29 00:05:51;;;;;;;;;;;20.70;99.90;;;19.88;78.97;95554.53;10418294;28;1907;-72
2022/07/29 00:10:55;;;;;;;;;;;20.70;99.90;;;19.74;80.36;95559.50;10420511;28;1804;-72
2022/07/29 00:15:59;;;;;;;;;;;20.60;99.90;;;19.69;81.61;95564.03;10419117;28;2006;-72
2022/07/29 00:21:06;;;;;;;;;;;20.50;99.90;;;19.76;82.59;95562.69;10400400;28;1893;-70
2022/07/29 00:26:09;;;;;;;;;;;20.50;99.90;;;19.76;83.32;95570.88;10415113;28;1862;-71
2022/07/29 00:31:12;;;;;;;;;;;20.50;99.90;;;19.68;86.20;95569.81;10417179;28;1917;-72
2022/07/29 00:36:16;;;;;;;;;;;20.40;99.90;;;19.61;87.78;95566.84;10418418;28;1945;-73
2022/07/29 00:41:19;;;;;;;;;;;20.40;99.90;;;19.54;88.48;95566.56;10411214;28;1921;-75
2022/07/29 00:46:23;;;;;;;;;;;20.40;99.90;;;19.62;88.56;95563.00;10413747;28;1906;-71
2022/07/29 00:51:26;;;;;;;;;;;20.30;99.90;;;19.63;88.12;95540.03;10417157;28;1952;-71
2022/07/29 00:56:29;;;;;;;;;;;20.40;99.90;;;19.49;87.99;95534.84;10407670;28;2020;-71
2022/07/29 01:01:32;;;;;;;;;;;20.30;99.90;;;19.52;86.88;95522.47;10411042;28;1959;-70
2022/07/29 01:06:36;;;;;;;;;;;20.20;99.90;;;19.49;83.82;95515.78;10409355;28;2004;-71
2022/07/29 01:11:40;;;;;;;;;;;20.30;99.90;;;19.42;83.34;95521.78;10417412;28;2044;-71
2022/07/29 01:16:43;;;;;;;;;;;20.20;99.90;;;19.46;82.13;95516.44;10414839;28;1916;-71
2022/07/29 01:21:47;;;;;;;;;;;20.30;99.90;;;19.54;82.08;95522.94;10413484;28;2043;-72
2022/07/29 01:27:00;;;;;;;;;;;20.30;99.90;;;19.52;80.60;95520.53;10413567;28;2001;-71
2022/07/29 01:32:24;;;;;;;;;;;20.30;99.90;;;19.57;80.86;95516.81;10412074;28;1929;-71
2022/07/29 01:37:48;;;;;;;;;;;20.40;99.90;;;19.45;81.60;95518.38;10411490;28;2048;-71
2022/07/29 01:43:05;;;;;;;;;;;20.20;99.90;;;19.33;83.45;95517.53;10431317;28;1910;-71
2022/07/29 01:48:08;;;;;;;;;;;20.20;99.90;;;19.29;82.70;95511.97;10414850;28;1899;-70
2022/07/29 01:53:11;;;;;;;;;;;20.10;99.90;;;19.41;82.22;95514.75;10409442;28;1965;-73
2022/07/29 01:58:15;;;;;;;;;;;20.10;99.90;;;19.42;82.41;95505.41;10417334;28;1980;-72
2022/07/29 02:03:21;;;;;;;;;;;20.20;99.90;;;19.47;81.89;95509.03;10410586;28;2000;-71
2022/07/29 02:08:25;;;;;;;;;;;20.20;99.90;;;19.47;82.94;95511.78;10411604;28;1982;-70
2022/07/29 02:13:29;;;;;;;;;;;20.30;99.90;;;19.31;85.06;95498.00;10412342;28;1945;-72
2022/07/29 02:18:32;;;;;;;;;;;20.20;99.90;;;19.27;86.82;95492.41;10409727;28;1957;-71
2022/07/29 02:23:36;;;;;;;;;;;20.00;99.90;;;19.29;86.76;95484.72;10409962;28;1938;-71
2022/07/29 02:28:52;;;;;;;;;;;20.00;99.90;;;19.27;88.11;95486.16;10413408;28;1989;-71
2022/07/29 02:33:55;;;;;;;;;;;20.00;99.90;;;19.26;88.90;95476.41;10412832;28;3066;-71
2022/07/29 02:39:00;;;;;;;;;;;20.00;99.90;;;19.18;89.09;95469.91;10410092;28;2042;-72
2022/07/29 02:44:04;;;;;;;;;;;20.00;99.90;;;19.15;89.92;95476.03;10410370;28;2115;-72
2022/07/29 02:49:07;;;;;;;;;;;20.00;99.90;;;19.13;89.85;95478.28;10415127;28;1992;-71
2022/07/29 02:54:10;;;;;;;;;;;20.00;99.90;;;19.13;89.31;95479.09;10410560;28;1945;-70
2022/07/29 02:59:13;;;;;;;;;;;19.90;99.90;;;19.02;89.46;95474.38;10409769;28;1993;-71
2022/07/29 03:04:16;;;;;;;;;;;19.90;99.90;;;18.82;92.27;95467.84;10410669;28;1954;-70
2022/07/29 03:09:20;;;;;;;;;;;19.80;99.90;;;18.72;93.26;95471.78;10420852;28;2004;-75
2022/07/29 03:14:24;;;;;;;;;;;19.70;99.90;;;18.63;94.03;95471.00;10419325;28;2001;-71
2022/07/29 03:19:27;;;;;;;;;;;19.60;99.90;;;18.57;94.43;95469.59;10418163;28;1987;-71
2022/07/29 03:24:30;;;;;;;;;;;19.50;99.90;;;18.49;94.59;95473.19;10418765;28;2055;-73
2022/07/29 03:29:33;;;;;;;;;;;19.40;99.90;;;18.47;93.23;95459.13;10415041;28;1977;-72
2022/07/29 03:34:38;;;;;;;;;;;19.40;99.90;;;18.36;93.95;95464.94;10421043;28;2000;-72
2022/07/29 03:39:41;;;;;;;;;;;19.30;99.90;;;18.32;94.37;95468.66;10416794;28;2107;-71
2022/07/29 03:44:45;;;;;;;;;;;19.20;99.90;;;18.22;95.91;95463.59;10413111;28;1937;-71
2022/07/29 03:49:48;;;;;;;;;;;19.20;99.90;;;18.08;98.65;95466.56;10417950;28;1969;-71
2022/07/29 03:54:51;;;;;;;;;;;19.00;99.90;;;17.83;100.00;95474.53;10420109;28;1827;-71
2022/07/29 03:59:55;;;;;;;;;;;18.80;99.90;;;17.91;100.00;95478.31;10411987;28;2140;-72
2022/07/29 04:04:58;;;;;;;;;;;18.80;99.90;;;17.95;100.00;95486.63;10409119;28;1985;-71
2022/07/29 04:10:02;;;;;;;;;;;18.80;99.90;;;18.00;100.00;95489.16;10403960;28;1940;-72
2022/07/29 04:15:06;;;;;;;;;;;18.80;99.90;;;17.99;100.00;95477.47;10415554;28;2044;-71
2022/07/29 04:20:12;;;;;;;;;;;18.80;99.90;;;18.07;100.00;95484.03;10409836;28;1992;-71
2022/07/29 04:25:15;;;;;;;;;;;18.80;99.90;;;18.10;100.00;95480.63;10420370;28;1937;-70
2022/07/29 04:30:20;;;;;;;;;;;18.90;99.90;;;18.40;100.00;95491.50;10418146;28;1887;-71
2022/07/29 04:35:23;;;;;;;;;;;19.00;99.90;;;18.76;98.23;95496.38;10418307;28;2038;-72
2022/07/29 04:40:27;;;;;;;;;;;19.20;99.90;;;19.16;95.93;95502.16;10413442;28;1933;-72
2022/07/29 04:45:30;;;;;;;;;;;19.60;99.90;;;19.71;91.94;95509.94;10412598;28;1994;-72
2022/07/29 04:50:34;;;;;;;;;;;20.00;99.90;;;20.01;88.11;95508.97;10408067;28;2091;-73
2022/07/29 04:55:37;;;;;;;;;;;20.40;99.90;;;20.40;86.36;95504.75;10411169;28;2076;-72
2022/07/29 05:00:40;;;;;;;;;;;20.80;99.90;;;20.55;84.32;95516.94;10413709;28;1985;-74
2022/07/29 05:05:44;;;;;;;;;;;21.10;99.90;;;20.46;83.30;95512.41;10411465;28;1820;-72
2022/07/29 05:10:48;;;;;;;;;;;21.10;99.90;;;20.60;83.07;95528.41;10415688;28;2114;-72
2022/07/29 05:15:51;;;;;;;;;;;21.30;99.90;;;20.81;82.37;95530.22;10408748;28;2027;-73
2022/07/29 05:20:55;;;;;;;;;;;21.30;99.90;;;20.38;85.98;95517.94;10420559;28;2138;-73
2022/07/29 05:25:58;;;;;;;;;;;21.30;99.90;;;20.22;86.63;95520.56;10409713;28;1843;-71
2022/07/29 05:31:01;;;;;;;;;;;21.10;99.90;;;20.72;84.21;95528.41;10417494;28;1857;-72
2022/07/29 05:36:05;;;;;;;;;;;21.20;99.90;;;21.07;82.25;95521.63;10417058;28;1918;-71
2022/07/29 05:41:08;;;;;;;;;;;21.50;99.90;;;21.50;79.99;95540.84;10407652;28;1860;-72
2022/07/29 05:46:11;;;;;;;;;;;21.80;99.90;;;21.54;79.39;95536.25;10409141;28;1844;-70
2022/07/29 05:51:14;;;;;;;;;;;22.00;99.90;;;21.60;78.44;95539.53;10411371;28;1844;-71
2022/07/29 05:56:18;;;;;;;;;;;22.10;99.90;;;22.05;76.37;95536.41;10410363;28;2589;-72
2022/07/29 06:01:21;;;;;;;;;;;22.30;99.90;;;22.47;73.83;95538.63;10409848;28;1797;-71
2022/07/29 06:06:24;;;;;;;;;;;22.70;99.90;;;23.20;69.99;95537.13;10407519;28;1843;-72
2022/07/29 06:11:28;;;;;;;;;;;23.20;99.90;;;23.39;67.50;95542.63;10415574;28;1910;-74
2022/07/29 06:16:31;;;;;;;;;;;23.50;99.90;;;23.38;65.18;95534.75;10410125;28;1918;-72
2022/07/29 06:21:34;;;;;;;;;;;23.80;99.90;;;23.31;66.87;95532.66;10414263;28;1832;-70
2022/07/29 06:26:43;;;;;;;;;;;23.70;99.90;;;23.78;63.76;95539.88;10411666;28;1890;-72
2022/07/29 06:31:46;;;;;;;;;;;23.90;99.90;;;24.20;60.51;95539.84;10423504;28;1828;-71
2022/07/29 06:36:52;;;;;;;;;;;24.30;99.90;;;24.19;59.77;95538.25;10406260;28;1981;-70
2022/07/29 06:41:56;;;;;;;;;;;24.50;99.90;;;24.02;59.55;95538.72;10410983;28;1891;-71
2022/07/29 06:46:59;;;;;;;;;;;24.60;99.90;;;24.37;58.94;95546.03;10404531;28;1841;-71
2022/07/29 06:52:03;;;;;;;;;;;24.70;99.90;;;24.59;58.37;95547.16;10407285;28;1762;-72
2022/07/29 06:57:07;;;;;;;;;;;25.00;99.90;;;24.86;57.49;95547.94;10412963;28;1910;-72
2022/07/29 07:02:10;;;;;;;;;;;25.20;99.90;;;24.89;53.87;95559.00;10389397;28;1814;-72
2022/07/29 07:07:13;;;;;;;;;;;25.40;99.90;;;25.17;51.37;95564.13;10412919;28;2008;-72
2022/07/29 07:12:16;;;;;;;;;;;25.30;99.90;;;25.28;52.12;95564.28;10396654;28;1848;-69
2022/07/29 07:17:19;;;;;;;;;;;25.50;99.90;;;25.72;50.05;95553.41;10404325;28;1931;-72
2022/07/29 07:22:22;;;;;;;;;;;25.80;99.90;;;26.13;47.41;95553.44;10405446;28;1860;-70
2022/07/29 07:27:27;;;;;;;;;;;26.10;99.90;;;25.93;47.25;95554.84;10402796;28;1841;-70
2022/07/29 07:32:30;;;;;;;;;;;26.10;99.90;;;25.63;47.57;95552.91;10425483;28;1731;-71
2022/07/29 07:37:33;;;;;;;;;;;26.00;99.90;;;25.75;47.89;95543.63;10405868;28;1910;-71
2022/07/29 07:42:37;;;;;;;;;;;26.00;99.90;;;25.96;48.04;95548.56;10403206;28;1817;-70
2022/07/29 07:47:42;;;;;;;;;;;26.00;99.90;;;25.64;47.56;95545.44;10407774;28;1916;-73
2022/07/29 07:52:45;;;;;;;;;;;26.00;99.90;;;25.69;44.30;95551.41;10416681;28;1848;-70
2022/07/29 07:57:49;;;;;;;;;;;26.10;99.90;;;26.22;45.08;95553.94;10415235;28;1918;-70
2022/07/29 08:02:52;;;;;;;;;;;;;;;26.22;45.46;95551.19;10409472;28;1985;-69
2022/07/29 08:07:56;;;;;;;;;;;;;;;26.48;44.78;95546.72;10423473;28;1895;-71
2022/07/29 08:12:59;;;;;;;;;;;;;;;26.46;44.58;95562.81;10417087;28;1817;-70
2022/07/29 08:18:03;;;;;;;;;;;;;;;26.31;46.12;95554.41;10412603;28;1915;-70
2022/07/29 08:23:11;;;;;;;;;;;;;;;26.40;44.98;95556.88;10437106;28;1880;-70
2022/07/29 08:28:15;;;;;;;;;;;;;;;26.78;44.20;95552.03;10419755;28;1733;-70
2022/07/29 08:33:18;;;;;;;;;;;;;;;26.91;44.34;95548.63;10429356;28;1895;-70
2022/07/29 08:38:22;;;;;;;;;;;;;;;27.47;43.26;95552.06;10410290;28;2052;-70
2022/07/29 08:43:26;;;;;;;;;;;;;;;27.41;41.26;95562.69;10409187;28;1904;-70
2022/07/29 08:48:30;;;;;;;;;;;;;;;28.35;40.59;95556.31;10417409;28;1809;-71
2022/07/29 08:53:34;;;;;;;;;;;;;;;27.92;41.69;95560.94;10410575;28;1819;-69
2022/07/29 08:58:37;;;;;;;;;;;;;;;28.16;41.73;95551.91;10409155;28;1973;-69
2022/07/29 09:03:41;;;;;;;;;;;;;;;27.91;40.83;95564.88;10411594;28;2144;-71
2022/07/29 09:08:46;;;;;;;;;;;;;;;28.09;41.07;95564.91;10417724;28;1793;-69
2022/07/29 09:13:50;;;;;;;;;;;;;;;28.63;40.67;95574.06;10409171;28;1860;-69
2022/07/29 09:18:53;;;;;;;;;;;28.80;99.90;;;29.00;40.03;95566.16;10412033;28;1973;-70
2022/07/29 09:23:59;;;;;;;;;;;29.20;99.90;;;28.88;39.92;95574.06;10418173;28;1897;-69
2022/07/29 09:29:03;;;;;;;;;;;29.50;99.90;;;29.06;39.71;95566.56;10411253;28;1825;-70
2022/07/29 09:34:05;;;;;;;;;;;29.60;99.90;;;28.33;40.85;95558.69;10416703;28;1826;-69
2022/07/29 09:39:08;;;;;;;;;;;29.10;99.90;;;27.56;43.35;95552.50;10406907;28;1918;-70
2022/07/29 09:44:11;;;;;;;;;;;28.70;99.90;;;28.48;40.63;95554.72;10417092;28;1859;-69
2022/07/29 09:49:14;;;;;;;;;;;28.80;99.90;;;28.47;41.62;95558.69;10410040;28;1871;-69
2022/07/29 09:54:17;;;;;;;;;;;28.70;99.90;;;27.44;42.68;95556.41;10418515;28;1816;-70
2022/07/29 09:59:24;;;;;;;;;;;28.30;99.90;;;27.56;43.68;95560.00;10413773;28;1984;-70
2022/07/29 10:04:26;;;;;;;;;;;28.00;99.90;;;28.15;42.78;95555.06;10411090;28;1844;-70
2022/07/29 10:09:30;;;;;;;;;;;28.20;99.90;;;28.16;43.04;95553.88;10412175;28;1892;-72
2022/07/29 10:14:34;;;;;;;;;;;28.50;99.90;;;28.34;42.55;95549.19;10405454;28;1852;-71
2022/07/29 10:19:37;;;;;;;;;;;28.70;99.90;;;28.42;41.63;95550.78;10409018;28;1977;-71
2022/07/29 10:24:39;;;;;;;;;;;28.80;99.90;;;28.88;40.89;95555.47;10411763;28;1832;-72
2022/07/29 10:29:42;;;;;;;;;;;29.20;99.90;;;28.31;41.71;95541.69;10412800;28;1769;-70
2022/07/29 10:34:45;;;;;;;;;;;29.10;99.90;;;28.60;39.98;95552.75;10412094;28;1874;-71
2022/07/29 10:39:48;;;;;;;;;;;28.90;99.90;;;28.55;41.11;95549.19;10406245;28;1918;-69
2022/07/29 10:45:11;;;;;;;;;;;28.90;99.90;;;27.32;42.37;95548.47;10411940;28;1832;-72
2022/07/29 10:50:13;;;;;;;;;;;28.70;99.90;;;27.48;43.35;95551.69;10423337;28;1951;-71
2022/07/29 10:55:19;;;;;;;;;;;28.10;99.90;;;28.21;40.41;95542.44;10411780;28;1866;-71
2022/07/29 11:00:22;;;;;;;;;;;29.00;99.90;;;28.53;39.89;95540.50;10413597;28;1973;-71
2022/07/29 11:05:29;;;;;;;;;;;30.30;99.90;;;28.93;40.02;95530.22;10408254;28;1909;-72
2022/07/29 11:10:42;;;;;;;;;;;30.70;99.90;;;30.12;36.73;95523.84;10404306;28;1875;-70
2022/07/29 11:15:46;;;;;;;;;;;31.90;99.90;;;30.10;37.69;95522.69;10401479;28;1857;-70
2022/07/29 11:20:49;;;;;;;;;;;31.90;99.90;;;30.41;36.42;95527.19;10406328;28;1989;-72
2022/07/29 11:25:53;;;;;;;;;;;32.40;99.90;;;30.72;35.43;95523.78;10414245;28;1786;-73
2022/07/29 11:30:57;;;;;;;;;;;32.70;99.90;;;30.34;35.26;95520.91;10403695;28;1943;-71
2022/07/29 11:36:00;;;;;;;;;;;32.50;99.90;;;29.69;34.44;95508.63;10419468;28;1819;-70
2022/07/29 11:41:05;;;;;;;;;;;31.30;99.90;;;29.06;34.76;95512.00;10416611;28;1985;-68
2022/07/29 11:46:10;;;;;;;;;;;30.10;99.90;;;28.33;37.37;95513.66;10424444;28;1771;-70
2022/07/29 11:51:15;;;;;;;;;;;29.40;99.90;;;27.93;38.27;95512.78;10417847;28;1829;-69
2022/07/29 11:56:19;;;;;;;;;;;28.80;99.90;;;28.14;35.08;95504.53;10417186;28;1823;-68
2022/07/29 12:01:27;;;;;;;;;;;28.80;99.90;;;28.13;34.88;95504.94;10415856;28;1964;-70
2022/07/29 12:06:30;;;;;;;;;;;28.60;99.90;;;28.35;36.30;95503.78;10413567;28;1828;-71
2022/07/29 12:11:34;;;;;;;;;;;28.60;99.90;;;28.76;35.63;95504.16;10421435;28;1895;-70
2022/07/29 12:16:37;;;;;;;;;;;28.90;99.90;;;28.85;36.37;95492.66;10415138;28;1850;-71
2022/07/29 12:21:40;;;;;;;;;;;29.00;99.90;;;29.25;35.42;95494.16;10411037;28;1914;-72
2022/07/29 12:26:54;;;;;;;;;;;29.40;99.90;;;28.83;36.69;95497.81;10411645;28;1786;-71
2022/07/29 12:31:57;;;;;;;;;;;29.10;99.90;;;28.67;36.72;95489.94;10419627;28;1855;-71
2022/07/29 12:37:01;;;;;;;;;;;29.10;99.90;;;28.87;37.09;95487.50;10418553;28;1858;-72
2022/07/29 12:42:04;;;;;;;;;;;29.20;99.90;;;29.11;36.57;95485.91;10410056;28;1930;-71
2022/07/29 12:47:07;;;;;;;;;;;29.40;99.90;;;29.31;37.08;95483.44;10402597;28;1886;-72
2022/07/29 12:52:10;;;;;;;;;;;29.60;99.90;;;28.96;37.05;95479.63;10407733;28;1905;-71
2022/07/29 12:57:13;;;;;;;;;;;29.60;99.90;;;28.67;37.54;95489.16;10407568;28;1876;-71
2022/07/29 13:02:22;;;;;;;;;;;29.10;99.90;;;28.53;36.53;95485.22;10426887;28;1975;-70
2022/07/29 13:07:25;;;;;;;;;;;28.90;99.90;;;28.12;38.64;95484.00;10417286;28;1833;-72
2022/07/29 13:12:48;;;;;;;;;;;28.70;99.90;;;27.75;38.15;95485.16;10408685;28;1915;-70
2022/07/29 13:17:52;;;;;;;;;;;28.30;99.90;;;27.45;39.23;95482.66;10409324;28;1895;-71
2022/07/29 13:22:55;;;;;;;;;;;28.00;99.90;;;27.21;39.72;95476.66;10411685;28;1869;-70
2022/07/29 13:27:58;;;;;;;;;;;28.00;99.90;;;27.00;40.90;95478.50;10429227;28;2210;-70
2022/07/29 13:33:01;;;;;;;;;;;27.60;99.90;;;27.02;41.58;95487.19;10415756;28;1879;-69
2022/07/29 13:38:04;;;;;;;;;;;27.60;99.90;;;26.47;43.01;95487.25;10417812;28;1975;-69
2022/07/29 13:43:08;;;;;;;;;;;27.20;99.90;;;26.31;42.76;95490.25;10412079;28;1864;-71
2022/07/29 13:48:11;;;;;;;;;;;27.10;99.90;;;26.40;42.23;95480.53;10412007;28;1914;-69
2022/07/29 13:53:14;;;;;;;;;;;26.90;99.90;;;26.55;42.32;95475.09;10400808;28;1872;-72
2022/07/29 13:58:19;;;;;;;;;;;26.90;99.90;;;26.54;45.55;95465.25;10410311;28;1910;-69
2022/07/29 14:03:23;;;;;;;;;;;27.00;99.90;;;26.87;43.63;95458.75;10409392;28;1857;-69
2022/07/29 14:08:27;;;;;;;;;;;27.10;99.90;;;27.63;42.39;95468.91;10399565;28;1919;-69
2022/07/29 14:13:30;;;;;;;;;;;27.70;99.90;;;28.09;38.86;95470.97;10425588;28;1842;-70
2022/07/29 14:18:33;;;;;;;;;;;28.20;99.90;;;27.55;41.07;95459.03;10405398;28;1931;-69
2022/07/29 14:23:37;;;;;;;;;;;28.20;99.90;;;27.56;39.85;95447.59;10406063;28;1808;-68
2022/07/29 14:28:44;;;;;;;;;;;28.00;99.90;;;27.76;39.05;95453.59;10403492;28;1907;-70
2022/07/29 14:33:47;;;;;;;;;;;28.00;99.90;;;27.95;38.50;95455.19;10406794;28;1857;-68
2022/07/29 14:38:51;;;;;;;;;;;28.10;99.90;;;27.82;38.73;95449.25;10411403;28;1914;-70
2022/07/29 14:43:53;;;;;;;;;;;28.20;99.90;;;27.58;40.17;95448.00;10410024;28;1919;-69
2022/07/29 14:48:57;;;;;;;;;;;28.00;99.90;;;27.14;40.67;95454.56;10403394;28;1839;-69
2022/07/29 14:54:00;;;;;;;;;;;27.80;99.90;;;26.80;41.63;95467.78;10408671;28;2202;-70
2022/07/29 14:59:04;;;;;;;;;;;27.50;99.90;;;26.53;42.66;95461.72;10412560;28;1977;-69
2022/07/29 15:04:07;;;;;;;;;;;27.20;99.90;;;26.39;43.07;95472.59;10422257;28;2166;-70
2022/07/29 15:09:10;;;;;;;;;;;27.00;99.90;;;26.32;43.43;95475.28;10425555;28;2309;-68
2022/07/29 15:14:13;;;;;;;;;;;26.80;99.90;;;26.21;44.15;95477.16;10420937;28;1912;-72
2022/07/29 15:19:17;;;;;;;;;;;26.80;99.90;;;25.99;45.34;95473.47;10416431;28;1910;-69
2022/07/29 15:24:20;;;;;;;;;;;26.70;99.90;;;25.52;47.11;95477.69;10419650;28;1868;-70
2022/07/29 15:29:23;;;;;;;;;;;26.40;99.90;;;25.21;49.03;95470.66;10417072;28;1877;-70
2022/07/29 15:34:26;;;;;;;;;;;26.10;99.90;;;24.86;50.70;95473.72;10421284;28;1907;-70
2022/07/29 15:39:28;;;;;;;;;;;25.80;99.90;;;24.77;52.49;95463.81;10444207;28;1895;-70
2022/07/29 15:44:32;;;;;;;;;;;25.60;99.90;;;24.65;54.52;95476.97;10425447;28;1856;-71
2022/07/29 15:49:35;;;;;;;;;;;25.30;99.90;;;24.41;56.50;95483.69;10421486;28;1829;-71
2022/07/29 15:54:50;;;;;;;;;;;25.20;99.90;;;24.36;57.80;95484.78;10426193;28;1860;-71
2022/07/29 15:59:53;;;;;;;;;;;25.00;99.90;;;24.38;58.48;95496.22;10425709;28;1977;-74
2022/07/29 16:04:56;;;;;;;;;;;25.00;99.90;;;24.56;58.03;95496.50;10417975;28;1860;-71
2022/07/29 16:09:59;;;;;;;;;;;25.10;99.90;;;24.46;58.44;95499.84;10421195;28;2108;-72
2022/07/29 16:15:02;;;;;;;;;;;25.10;99.90;;;24.37;58.79;95496.59;10400875;28;1885;-71
2022/07/29 16:20:11;;;;;;;;;;;25.00;99.90;;;24.27;59.11;95498.75;10404209;28;1914;-71
2022/07/29 16:25:16;;;;;;;;;;;25.00;99.90;;;24.22;59.14;95499.06;10409148;28;1891;-70
2022/07/29 16:30:19;;;;;;;;;;;24.90;99.90;;;24.24;59.25;95506.94;10409341;28;1911;-73
2022/07/29 16:35:23;;;;;;;;;;;24.90;99.90;;;24.22;59.59;95504.53;10411200;28;1834;-72
2022/07/29 16:40:40;;;;;;;;;;;24.90;99.90;;;24.23;60.06;95514.38;10404719;28;2175;-71
2022/07/29 16:45:43;;;;;;;;;;;24.90;99.90;;;24.08;60.91;95525.50;10405621;28;1848;-70
2022/07/29 16:50:48;;;;;;;;;;;24.80;99.90;;;23.93;61.52;95532.69;10404672;28;1907;-70
2022/07/29 16:55:51;;;;;;;;;;;24.70;99.90;;;23.78;64.62;95544.56;10407511;28;1911;-71
2022/07/29 17:00:55;;;;;;;;;;;24.50;99.90;;;22.74;73.87;95552.56;10422075;28;1985;-70
2022/07/29 17:05:59;;;;;;;;;;;24.20;99.90;;;22.18;79.07;95559.03;10407371;28;1947;-71
2022/07/29 17:11:03;;;;;;;;;;;;;;;22.06;78.53;95568.09;10409514;28;1925;-73
2022/07/29 17:16:06;;;;;;;;;;;;;;;22.08;74.06;95571.28;10405378;28;1925;-73
2022/07/29 17:21:10;;;;;;;;;;;;;;;22.12;73.25;95574.94;10410256;28;1911;-72
2022/07/29 17:26:13;;;;;;;;;;;;;;;22.16;71.34;95579.72;10410679;28;1770;-74
2022/07/29 17:31:17;;;;;;;;;;;;;;;21.84;77.59;95598.78;10413337;28;1855;-73
2022/07/29 17:36:23;;;;;;;;;;;;;;;21.51;75.56;95599.06;10410429;28;1924;-71
2022/07/29 17:41:27;;;;;;;;;;;22.50;99.90;;;21.64;74.99;95627.16;10416548;28;2300;-83
2022/07/29 17:46:31;;;;;;;;;;;22.20;99.90;;;20.37;92.53;95640.00;10406776;28;1747;-75
2022/07/29 17:51:35;;;;;;;;;;;;;;;18.80;98.88;95649.81;10406606;28;1891;-67
2022/07/29 17:56:38;;;;;;;;;;;19.50;99.90;;;18.01;100.00;95649.31;10427095;28;1588;-70
2022/07/29 18:01:42;;;;;;;;;;;;;;;17.69;100.00;95658.78;10404309;28;1915;-68
2022/07/29 18:06:45;;;;;;;;;;;18.70;99.90;;;17.68;100.00;95665.31;10431289;28;1881;-67
2022/07/29 18:11:49;;;;;;;;;;;;;;;17.47;100.00;95650.78;10425077;28;1861;-69
2022/07/29 18:16:54;;;;;;;;;;;;;;;17.52;100.00;95647.91;10414161;28;1842;-68
2022/07/29 18:21:59;;;;;;;;;;;;;;;17.57;100.00;95666.78;10407161;28;1910;-76
2022/07/29 18:27:09;;;;;;;;;;;;;;;17.97;100.00;95675.53;10399516;28;1859;-68
2022/07/29 18:32:13;;;;;;;;;;;;;;;18.14;100.00;95669.28;10412764;28;1814;-69
2022/07/29 18:37:17;;;;;;;;;;;;;;;18.27;100.00;95676.44;10404055;28;1879;-67
2022/07/29 18:42:41;;;;;;;;;;;;;;;18.15;100.00;95673.59;10405356;28;1898;-67
2022/07/29 18:47:45;;;;;;;;;;;;;;;18.41;100.00;95675.44;10406691;28;1844;-69
2022/07/29 18:52:50;;;;;;;;;;;;;;;17.98;100.00;95701.63;10424781;28;1781;-68
2022/07/29 18:57:54;;;;;;;;;;;;;;;17.76;100.00;95696.38;10408498;28;1808;-69
2022/07/29 19:03:01;;;;;;;;;;;;;;;17.67;100.00;95703.69;10405864;28;1977;-69
2022/07/29 19:08:05;;;;;;;;;;;;;;;17.62;100.00;95710.06;10409039;28;1880;-70
2022/07/29 19:13:09;;;;;;;;;;;;;;;17.77;100.00;95709.63;10408405;28;2466;-69
2022/07/29 19:18:15;;;;;;;;;;;;;;;18.00;100.00;95717.59;10428957;28;1836;-68
2022/07/29 19:23:20;;;;;;;;;;;;;;;17.95;100.00;95720.50;10409278;28;1910;-69
2022/07/29 19:28:26;;;;;;;;;;;;;;;17.79;100.00;95723.69;10406584;28;1836;-68
2022/07/29 19:33:32;;;;;;;;;;;;;;;18.30;100.00;95732.91;10412511;28;1915;-68
2022/07/29 19:38:37;;;;;;;;;;;;;;;18.02;100.00;95737.94;10428009;28;1813;-66
2022/07/29 19:43:40;;;;;;;;;;;;;;;17.94;100.00;95746.06;10405058;28;1992;-67
2022/07/29 19:48:55;;;;;;;;;;;;;;;17.53;100.00;95750.06;10417950;28;1857;-67
2022/07/29 19:53:58;;;;;;;;;;;;;;;17.69;100.00;95762.06;10420908;28;1870;-67
2022/07/29 19:59:02;;;;;;;;;;;;;;;17.87;100.00;95745.78;10418254;28;1868;-67
2022/07/29 20:04:09;;;;;;;;;;;;;;;17.56;100.00;95752.94;10411598;28;1922;-68
2022/07/29 20:09:13;;;;;;;;;;;;;;;17.82;100.00;95752.19;10411167;28;1765;-66
2022/07/29 20:14:22;;;;;;;;;;;;;;;17.83;100.00;95756.50;10412970;28;1811;-66
2022/07/29 20:19:25;;;;;;;;;;;;;;;17.64;100.00;95764.94;10410621;28;1895;-72
2022/07/29 20:24:30;;;;;;;;;;;;;;;17.54;100.00;95762.50;10425357;28;1914;-70
2022/07/29 20:29:33;;;;;;;;;;;;;;;17.25;100.00;95774.00;10420233;28;1813;-69
2022/07/29 20:34:37;;;;;;;;;;;;;;;17.13;100.00;95760.22;10423148;28;1879;-68
2022/07/29 20:39:41;;;;;;;;;;;;;;;17.25;100.00;95763.91;10419831;28;1875;-68
2022/07/29 20:44:45;;;;;;;;;;;;;;;17.21;100.00;95764.84;10421119;28;1968;-70
2022/07/29 20:49:48;;;;;;;;;;;;;;;17.18;100.00;95762.78;10416765;28;1898;-69
2022/07/29 20:54:53;;;;;;;;;;;;;;;17.23;100.00;95760.69;10417908;28;1785;-68
2022/07/29 20:59:57;;;;;;;;;;;;;;;17.34;100.00;95749.53;10417533;28;1977;-73
2022/07/29 21:05:02;;;;;;;;;;;;;;;17.23;100.00;95754.47;10419694;28;1860;-69
2022/07/29 21:10:06;;;;;;;;;;;;;;;17.09;100.00;95760.03;10416490;28;1855;-68
2022/07/29 21:15:12;;;;;;;;;;;;;;;17.21;100.00;95760.22;10411199;28;1896;-69
2022/07/29 21:20:16;;;;;;;;;;;;;;;17.22;100.00;95756.38;10419374;28;1922;-68
2022/07/29 21:25:20;;;;;;;;;;;;;;;17.08;100.00;95754.91;10418430;28;1855;-70
2022/07/29 21:30:26;;;;;;;;;;;;;;;17.18;100.00;95765.50;10401619;28;1890;-69
2022/07/29 21:35:30;;;;;;;;;;;;;;;17.13;100.00;95771.88;10408451;28;1827;-68
2022/07/29 21:40:54;;;;;;;;;;;;;;;17.16;100.00;95763.06;10407753;28;1929;-68
2022/07/29 21:45:57;;;;;;;;;;;;;;;17.13;100.00;95761.00;10411009;28;1822;-69
2022/07/29 21:51:01;;;;;;;;;;;;;;;17.21;100.00;95754.78;10412961;28;1925;-69
2022/07/29 21:56:05;;;;;;;;;;;;;;;17.19;100.00;95759.75;10421094;28;1818;-69
2022/07/29 22:01:13;;;;;;;;;;;;;;;17.16;100.00;95763.06;10412545;28;1910;-69
2022/07/29 22:06:17;;;;;;;;;;;;;;;17.18;100.00;95754.63;10408972;28;1834;-69
2022/07/29 22:11:22;;;;;;;;;;;;;;;17.25;100.00;95746.81;10406830;28;1854;-67
2022/07/29 22:16:26;;;;;;;;;;;;;;;17.13;100.00;95752.84;10428774;28;1762;-68
2022/07/29 22:21:30;;;;;;;;;;;;;;;17.07;100.00;95756.84;10412508;28;1914;-68
2022/07/29 22:26:34;;;;;;;;;;;;;;;17.05;100.00;95759.06;10409794;28;1891;-68
2022/07/29 22:31:38;;;;;;;;;;;;;;;17.07;100.00;95761.47;10407230;28;1870;-69
2022/07/29 22:36:42;;;;;;;;;;;;;;;17.11;100.00;95765.13;10408357;28;1770;-69
2022/07/29 22:41:46;;;;;;;;;;;;;;;16.95;100.00;95767.50;10404196;28;1906;-68
2022/07/29 22:46:51;;;;;;;;;;;;;;;17.05;100.00;95764.50;10408183;28;1782;-68
2022/07/29 22:51:55;;;;;;;;;;;;;;;17.13;100.00;95752.84;10404345;28;1883;-69
2022/07/29 22:56:59;;;;;;;;;;;;;;;17.11;100.00;95749.63;10406972;28;1749;-68
2022/07/29 23:02:03;;;;;;;;;;;;;;;17.02;100.00;95743.41;10409107;28;1922;-68
2022/07/29 23:07:08;;;;;;;;;;;;;;;16.95;100.00;95745.78;10400218;28;1972;-68
2022/07/29 23:12:11;;;;;;;;;;;;;;;17.04;100.00;95738.44;10411170;28;1936;-67
2022/07/29 23:17:15;;;;;;;;;;;;;;;17.00;100.00;95734.78;10402137;28;1980;-70
2022/07/29 23:22:18;;;;;;;;;;;;;;;16.95;100.00;95726.75;10428488;28;1985;-67
2022/07/29 23:27:22;;;;;;;;;;;;;;;16.86;100.00;95723.22;10414586;28;1899;-71
2022/07/29 23:32:25;;;;;;;;;;;;;;;16.71;100.00;95719.81;10418044;28;1815;-69
2022/07/29 23:37:29;;;;;;;;;;;;;;;16.69;100.00;95722.03;10412991;28;1788;-70
2022/07/29 23:42:33;;;;;;;;;;;;;;;16.77;100.00;95716.97;10417419;28;1910;-68
2022/07/29 23:47:38;;;;;;;;;;;;;;;16.70;100.00;95709.28;10409069;28;1936;-68
2022/07/29 23:52:42;;;;;;;;;;;;;;;16.68;100.00;95704.13;10413960;28;1797;-68
2022/07/29 23:57:47;;;;;;;;;;;;;;;16.77;100.00;95697.97;10413322;28;1827;-68
